createdAt,value
2023-04-13T00:00:55.814Z,6.46
2023-04-13T00:01:57.584Z,6.41
2023-04-13T00:03:02.210Z,6.36
2023-04-13T00:04:05.594Z,6.37
2023-04-13T00:05:10.018Z,6.37
2023-04-13T00:06:12.916Z,6.28
2023-04-13T00:07:17.012Z,6.29
2023-04-13T00:08:22.828Z,6.28
2023-04-13T00:09:25.920Z,6.26
2023-04-13T00:10:28.604Z,6.29
2023-04-13T00:11:32.004Z,6.26
2023-04-13T00:12:34.843Z,6.14
2023-04-13T00:13:41.282Z,6.13
2023-04-13T00:14:44.358Z,6.14
2023-04-13T00:15:46.185Z,6.20
2023-04-13T00:16:48.964Z,6.19
2023-04-13T00:17:51.452Z,6.16
2023-04-13T00:18:54.226Z,6.15
2023-04-13T00:19:58.122Z,6.16
2023-04-13T00:21:01.076Z,6.16
2023-04-13T00:22:03.075Z,6.14
2023-04-13T00:23:05.794Z,6.07
2023-04-13T00:24:09.033Z,6.06
2023-04-13T00:25:14.437Z,6.06
2023-04-13T00:26:16.452Z,6.08
2023-04-13T00:27:19.109Z,6.05
2023-04-13T00:28:21.462Z,6.04
2023-04-13T00:29:24.179Z,6.05
2023-04-13T00:30:26.160Z,6.05
2023-04-13T00:31:29.581Z,6.07
2023-04-13T00:32:31.562Z,6.06
2023-04-13T00:33:34.292Z,6.09
2023-04-13T00:34:36.011Z,6.08
2023-04-13T00:35:41.138Z,6.08
2023-04-13T00:36:42.867Z,6.13
2023-04-13T00:37:47.039Z,5.99
2023-04-13T00:38:48.754Z,6.03
2023-04-13T00:39:52.836Z,6.04
2023-04-13T00:40:55.957Z,6.07
2023-04-13T00:41:58.664Z,5.95
2023-04-13T00:43:02.212Z,6.00
2023-04-13T00:44:04.378Z,6.08
2023-04-13T00:45:09.579Z,6.04
2023-04-13T00:46:11.498Z,6.09
2023-04-13T00:47:17.716Z,6.11
2023-04-13T00:48:19.520Z,6.14
2023-04-13T00:49:22.968Z,6.13
2023-04-13T00:50:24.784Z,6.13
2023-04-13T00:51:27.544Z,6.05
2023-04-13T00:52:29.514Z,6.07
2023-04-13T00:53:33.546Z,6.05
2023-04-13T00:54:35.671Z,6.09
2023-04-13T00:55:42.474Z,6.09
2023-04-13T00:56:44.718Z,6.08
2023-04-13T00:57:49.972Z,6.08
2023-04-13T00:58:51.861Z,5.98
2023-04-13T00:59:54.651Z,5.96
2023-04-13T01:00:56.329Z,5.94
2023-04-13T01:02:02.164Z,5.92
2023-04-13T01:03:04.149Z,5.93
2023-04-13T01:04:06.935Z,5.86
2023-04-13T01:05:12.182Z,5.89
2023-04-13T01:06:21.205Z,5.87
2023-04-13T01:07:30.129Z,5.91
2023-04-13T01:08:37.204Z,5.88
2023-04-13T01:09:42.112Z,5.95
2023-04-13T01:10:51.656Z,5.93
2023-04-13T01:11:58.161Z,5.98
2023-04-13T01:13:09.577Z,5.93
2023-04-13T01:14:15.379Z,6.04
2023-04-13T01:15:18.664Z,6.02
2023-04-13T01:16:22.275Z,6.05
2023-04-13T01:17:28.701Z,6.04
2023-04-13T01:18:34.757Z,6.09
2023-04-13T01:19:52.199Z,6.09
2023-04-13T01:20:55.044Z,6.07
2023-04-13T01:21:57.934Z,6.07
2023-04-13T01:23:02.163Z,6.11
2023-04-13T01:24:17.009Z,6.08
2023-04-13T01:25:28.174Z,6.09
2023-04-13T01:26:38.832Z,6.11
2023-04-13T01:27:46.918Z,6.03
2023-04-13T01:28:51.257Z,6.09
2023-04-13T01:29:56.871Z,6.08
2023-04-13T01:31:01.547Z,6.03
2023-04-13T01:32:03.463Z,6.01
2023-04-13T01:33:06.839Z,5.96
2023-04-13T01:34:09.123Z,5.97
2023-04-13T01:35:11.855Z,5.96
2023-04-13T01:36:14.452Z,5.98
2023-04-13T01:37:17.782Z,5.97
2023-04-13T01:38:24.602Z,5.99
2023-04-13T01:39:32.054Z,5.98
2023-04-13T01:40:36.773Z,5.99
2023-04-13T01:41:39.411Z,6.00
2023-04-13T01:42:43.282Z,5.90
2023-04-13T01:43:46.264Z,5.90
2023-04-13T01:44:47.954Z,5.96
2023-04-13T01:45:54.879Z,5.97
2023-04-13T01:47:02.265Z,6.01
2023-04-13T01:48:09.885Z,6.00
2023-04-13T01:49:11.823Z,6.01
2023-04-13T01:50:19.373Z,6.00
2023-04-13T01:51:24.303Z,5.93
2023-04-13T01:52:28.202Z,5.93
2023-04-13T01:53:31.518Z,5.99
2023-04-13T01:54:34.889Z,6.01
2023-04-13T01:55:38.305Z,6.00
2023-04-13T01:56:41.614Z,6.00
2023-04-13T01:57:47.274Z,5.96
2023-04-13T01:58:52.011Z,5.92
2023-04-13T01:59:53.713Z,5.93
2023-04-13T02:00:56.388Z,5.94
2023-04-13T02:01:59.826Z,5.85
2023-04-13T02:03:04.414Z,5.86
2023-04-13T02:04:07.762Z,5.86
2023-04-13T02:05:10.684Z,5.88
2023-04-13T02:06:13.899Z,5.88
2023-04-13T02:07:16.311Z,5.83
2023-04-13T02:08:20.635Z,5.87
2023-04-13T02:09:22.432Z,5.87
2023-04-13T02:10:26.440Z,5.77
2023-04-13T02:11:28.473Z,5.81
2023-04-13T02:12:31.123Z,5.75
2023-04-13T02:13:35.408Z,5.78
2023-04-13T02:14:37.384Z,5.74
2023-04-13T02:15:41.451Z,5.78
2023-04-13T02:16:43.245Z,5.78
2023-04-13T02:17:46.002Z,5.75
2023-04-13T02:18:49.222Z,5.83
2023-04-13T02:19:50.928Z,5.83
2023-04-13T02:21:00.516Z,5.76
2023-04-13T02:22:02.224Z,5.77
2023-04-13T02:23:04.953Z,5.75
2023-04-13T02:24:07.572Z,5.78
2023-04-13T02:25:11.619Z,5.78
2023-04-13T02:26:14.181Z,5.78
2023-04-13T02:27:17.189Z,5.79
2023-04-13T02:28:18.906Z,5.81
2023-04-13T02:29:24.116Z,5.85
2023-04-13T02:30:26.098Z,5.86
2023-04-13T02:31:31.955Z,5.83
2023-04-13T02:32:35.391Z,5.85
2023-04-13T02:33:39.836Z,5.84
2023-04-13T02:34:42.644Z,5.87
2023-04-13T02:35:45.621Z,5.82
2023-04-13T02:36:47.385Z,5.84
2023-04-13T02:37:50.041Z,5.86
2023-04-13T02:38:53.027Z,5.89
2023-04-13T02:39:55.811Z,5.92
2023-04-13T02:40:59.109Z,5.92
2023-04-13T02:42:02.300Z,5.94
2023-04-13T02:43:04.289Z,5.96
2023-04-13T02:44:06.976Z,5.99
2023-04-13T02:45:12.228Z,6.01
2023-04-13T02:46:15.874Z,6.02
2023-04-13T02:47:17.635Z,6.05
2023-04-13T02:48:20.539Z,6.05
2023-04-13T02:49:22.295Z,6.08
2023-04-13T02:50:25.055Z,6.10
2023-04-13T02:51:27.981Z,6.11
2023-04-13T02:52:31.056Z,6.13
2023-04-13T02:53:32.767Z,6.15
2023-04-13T02:54:35.496Z,6.14
2023-04-13T02:55:37.696Z,6.14
2023-04-13T02:56:40.478Z,6.16
2023-04-13T02:57:42.325Z,6.18
2023-04-13T02:58:45.905Z,6.17
2023-04-13T02:59:47.869Z,6.18
2023-04-13T03:00:52.073Z,6.18
2023-04-13T03:01:53.997Z,6.16
2023-04-13T03:02:57.387Z,6.15
2023-04-13T03:03:59.317Z,6.16
2023-04-13T03:05:02.808Z,6.17
2023-04-13T03:06:04.843Z,6.17
2023-04-13T03:07:09.997Z,6.13
2023-04-13T03:08:11.835Z,6.16
2023-04-13T03:09:16.118Z,6.16
2023-04-13T03:10:18.806Z,6.20
2023-04-13T03:11:23.523Z,6.14
2023-04-13T03:12:26.476Z,6.15
2023-04-13T03:13:29.163Z,6.17
2023-04-13T03:14:33.158Z,6.19
2023-04-13T03:15:36.233Z,6.23
2023-04-13T03:16:39.324Z,6.23
2023-04-13T03:17:44.041Z,6.25
2023-04-13T03:18:45.877Z,6.27
2023-04-13T03:19:49.532Z,6.28
2023-04-13T03:20:51.207Z,6.25
2023-04-13T03:21:54.017Z,6.28
2023-04-13T03:22:56.243Z,6.24
2023-04-13T03:23:59.363Z,6.24
2023-04-13T03:25:01.537Z,6.27
2023-04-13T03:26:04.251Z,6.29
2023-04-13T03:27:06.134Z,6.26
2023-04-13T03:28:08.911Z,6.27
2023-04-13T03:29:10.922Z,6.26
2023-04-13T03:30:14.149Z,6.27
2023-04-13T03:31:15.969Z,6.25
2023-04-13T03:32:21.366Z,6.19
2023-04-13T03:33:23.085Z,6.25
2023-04-13T03:34:25.849Z,6.21
2023-04-13T03:35:27.850Z,6.25
2023-04-13T03:36:31.539Z,6.18
2023-04-13T03:37:40.206Z,6.23
2023-04-13T03:38:43.076Z,6.14
2023-04-13T03:39:44.841Z,6.21
2023-04-13T03:40:47.627Z,6.16
2023-04-13T03:41:49.317Z,6.23
2023-04-13T03:42:52.025Z,6.28
2023-04-13T03:43:53.781Z,6.30
2023-04-13T03:44:56.437Z,6.30
2023-04-13T03:45:58.191Z,6.30
2023-04-13T03:47:01.159Z,6.34
2023-04-13T03:48:05.901Z,6.13
2023-04-13T03:49:10.445Z,6.22
2023-04-13T03:50:12.238Z,6.31
2023-04-13T03:51:14.913Z,6.23
2023-04-13T03:52:16.645Z,6.22
2023-04-13T03:53:19.340Z,6.28
2023-04-13T03:54:21.378Z,6.28
2023-04-13T03:55:24.162Z,6.19
2023-04-13T03:56:26.713Z,6.20
2023-04-13T03:57:29.435Z,6.31
2023-04-13T03:58:31.278Z,6.32
2023-04-13T03:59:33.980Z,6.34
2023-04-13T04:00:35.834Z,6.30
2023-04-13T04:01:38.650Z,6.35
2023-04-13T04:02:40.644Z,6.40
2023-04-13T04:03:45.046Z,6.41
2023-04-13T04:04:46.836Z,6.34
2023-04-13T04:05:49.591Z,6.39
2023-04-13T04:06:51.411Z,6.28
2023-04-13T04:07:54.072Z,6.33
2023-04-13T04:08:55.963Z,6.29
2023-04-13T04:09:58.659Z,6.16
2023-04-13T04:11:00.298Z,6.30
2023-04-13T04:12:03.769Z,6.35
2023-04-13T04:13:06.040Z,6.34
2023-04-13T04:14:08.736Z,6.34
2023-04-13T04:15:10.878Z,6.37
2023-04-13T04:16:13.687Z,6.37
2023-04-13T04:17:15.470Z,6.39
2023-04-13T04:18:18.154Z,6.43
2023-04-13T04:19:21.221Z,6.46
2023-04-13T04:20:24.063Z,6.44
2023-04-13T04:21:34.359Z,6.43
2023-04-13T04:22:37.147Z,6.45
2023-04-13T04:23:40.328Z,6.43
2023-04-13T04:24:42.465Z,6.40
2023-04-13T04:25:45.349Z,6.45
2023-04-13T04:26:50.199Z,6.40
2023-04-13T04:27:53.117Z,6.40
2023-04-13T04:29:03.111Z,6.44
2023-04-13T04:30:07.154Z,6.38
2023-04-13T04:31:10.820Z,6.43
2023-04-13T04:32:15.438Z,6.42
2023-04-13T04:33:17.110Z,6.45
2023-04-13T04:34:19.964Z,6.46
2023-04-13T04:35:26.113Z,6.49
2023-04-13T04:36:28.835Z,6.46
2023-04-13T04:37:37.692Z,6.44
2023-04-13T04:38:41.295Z,6.37
2023-04-13T04:39:44.554Z,6.38
2023-04-13T04:40:47.301Z,6.39
2023-04-13T04:41:49.177Z,6.41
2023-04-13T04:42:51.991Z,6.43
2023-04-13T04:43:56.734Z,6.44
2023-04-13T04:44:59.875Z,6.42
2023-04-13T04:46:04.458Z,6.37
2023-04-13T04:47:07.555Z,6.38
2023-04-13T04:48:09.517Z,6.34
2023-04-13T04:49:12.239Z,6.38
2023-04-13T04:50:14.486Z,6.37
2023-04-13T04:51:24.777Z,6.39
2023-04-13T04:52:26.459Z,6.39
2023-04-13T04:53:29.126Z,6.34
2023-04-13T04:54:30.880Z,6.38
2023-04-13T04:55:34.617Z,6.41
2023-04-13T04:56:36.313Z,6.46
2023-04-13T04:57:39.027Z,6.37
2023-04-13T04:58:40.714Z,6.37
2023-04-13T04:59:43.401Z,6.40
2023-04-13T05:00:45.219Z,6.40
2023-04-13T05:01:49.805Z,6.44
2023-04-13T05:02:51.813Z,6.44
2023-04-13T05:03:54.582Z,6.42
2023-04-13T05:04:57.403Z,6.41
2023-04-13T05:06:00.672Z,6.44
2023-04-13T05:07:03.774Z,6.46
2023-04-13T05:08:06.607Z,6.51
2023-04-13T05:09:09.030Z,6.47
2023-04-13T05:10:11.964Z,6.46
2023-04-13T05:11:14.688Z,6.49
2023-04-13T05:12:16.847Z,6.50
2023-04-13T05:13:19.509Z,6.53
2023-04-13T05:14:21.279Z,6.53
2023-04-13T05:15:24.996Z,6.52
2023-04-13T05:16:30.961Z,6.50
2023-04-13T05:17:32.835Z,6.55
2023-04-13T05:18:44.935Z,6.50
2023-04-13T05:19:48.144Z,6.54
2023-04-13T05:20:49.884Z,6.56
2023-04-13T05:21:52.568Z,6.49
2023-04-13T05:22:55.631Z,6.47
2023-04-13T05:23:58.316Z,6.50
2023-04-13T05:25:00.042Z,6.53
2023-04-13T05:26:02.730Z,6.56
2023-04-13T05:27:04.453Z,6.60
2023-04-13T05:28:07.239Z,6.59
2023-04-13T05:29:09.358Z,6.63
2023-04-13T05:30:12.629Z,6.65
2023-04-13T05:31:15.744Z,6.65
2023-04-13T05:32:18.516Z,6.68
2023-04-13T05:33:20.616Z,6.66
2023-04-13T05:34:23.307Z,6.70
2023-04-13T05:35:27.982Z,6.57
2023-04-13T05:36:32.015Z,6.65
2023-04-13T05:37:34.777Z,6.66
2023-04-13T05:38:38.896Z,6.57
2023-04-13T05:39:41.621Z,6.60
2023-04-13T05:40:43.378Z,6.66
2023-04-13T05:41:46.112Z,6.67
2023-04-13T05:42:47.997Z,6.53
2023-04-13T05:43:51.384Z,6.54
2023-04-13T05:44:53.103Z,6.63
2023-04-13T05:45:55.950Z,6.69
2023-04-13T05:46:58.178Z,6.73
2023-04-13T05:48:00.945Z,6.75
2023-04-13T05:49:02.754Z,6.78
2023-04-13T05:50:06.064Z,6.83
2023-04-13T05:51:08.348Z,6.77
2023-04-13T05:52:11.034Z,6.78
2023-04-13T05:53:12.798Z,6.86
2023-04-13T05:54:17.484Z,6.79
2023-04-13T05:55:21.952Z,6.73
2023-04-13T05:56:23.995Z,6.78
2023-04-13T05:57:27.170Z,6.78
2023-04-13T05:58:28.992Z,6.73
2023-04-13T05:59:31.993Z,6.69
2023-04-13T06:00:34.458Z,6.75
2023-04-13T06:01:37.910Z,6.77
2023-04-13T06:02:41.759Z,6.84
2023-04-13T06:03:46.288Z,6.78
2023-04-13T06:04:48.863Z,6.81
2023-04-13T06:05:52.508Z,6.88
2023-04-13T06:06:55.908Z,6.93
2023-04-13T06:07:59.745Z,6.94
2023-04-13T06:09:02.535Z,6.91
2023-04-13T06:10:06.955Z,6.85
2023-04-13T06:11:09.787Z,6.89
2023-04-13T06:12:11.536Z,6.83
2023-04-13T06:13:14.588Z,6.72
2023-04-13T06:14:17.788Z,6.78
2023-04-13T06:15:20.863Z,6.77
2023-04-13T06:16:23.348Z,6.82
2023-04-13T06:17:26.519Z,6.85
2023-04-13T06:18:28.830Z,6.81
2023-04-13T06:19:31.763Z,6.78
2023-04-13T06:20:34.328Z,6.83
2023-04-13T06:21:37.150Z,6.81
2023-04-13T06:22:38.853Z,6.62
2023-04-13T06:23:41.611Z,6.70
2023-04-13T06:24:43.268Z,6.71
2023-04-13T06:25:47.409Z,6.68
2023-04-13T06:26:49.109Z,6.78
2023-04-13T06:27:51.866Z,6.75
2023-04-13T06:28:53.600Z,6.82
2023-04-13T06:29:56.877Z,6.84
2023-04-13T06:30:58.639Z,6.88
2023-04-13T06:32:01.416Z,6.94
2023-04-13T06:33:04.285Z,7.01
2023-04-13T06:34:06.057Z,7.03
2023-04-13T06:35:09.231Z,7.05
2023-04-13T06:36:11.229Z,7.09
2023-04-13T06:37:13.984Z,7.06
2023-04-13T06:38:15.665Z,7.15
2023-04-13T06:39:18.335Z,7.11
2023-04-13T06:40:20.641Z,7.18
2023-04-13T06:41:24.664Z,7.11
2023-04-13T06:42:26.606Z,7.20
2023-04-13T06:43:29.934Z,7.16
2023-04-13T06:44:31.715Z,7.14
2023-04-13T06:45:34.743Z,7.15
2023-04-13T06:46:36.504Z,7.21
2023-04-13T06:47:40.958Z,7.29
2023-04-13T06:48:42.878Z,7.35
2023-04-13T06:49:45.952Z,7.35
2023-04-13T06:50:47.651Z,7.30
2023-04-13T06:51:50.391Z,7.26
2023-04-13T06:52:56.104Z,7.32
2023-04-13T06:53:57.811Z,7.35
2023-04-13T06:55:00.513Z,7.27
2023-04-13T06:56:03.181Z,7.17
2023-04-13T06:57:06.565Z,7.25
2023-04-13T06:58:09.188Z,7.28
2023-04-13T06:59:11.098Z,7.31
2023-04-13T07:00:29.115Z,7.33
2023-04-13T07:01:32.794Z,7.35
2023-04-13T07:02:34.846Z,7.42
2023-04-13T07:03:37.704Z,7.38
2023-04-13T07:04:39.720Z,7.46
2023-04-13T07:05:43.516Z,7.53
2023-04-13T07:06:45.526Z,7.56
2023-04-13T07:07:48.248Z,7.63
2023-04-13T07:08:49.954Z,7.53
2023-04-13T07:09:52.798Z,7.46
2023-04-13T07:10:55.265Z,7.32
2023-04-13T07:11:58.005Z,7.40
2023-04-13T07:13:01.019Z,7.49
2023-04-13T07:14:03.849Z,7.52
2023-04-13T07:15:06.943Z,7.51
2023-04-13T07:16:12.182Z,7.54
2023-04-13T07:17:14.304Z,7.51
2023-04-13T07:18:16.981Z,7.53
2023-04-13T07:19:20.517Z,7.42
2023-04-13T07:20:23.254Z,7.35
2023-04-13T07:21:24.999Z,7.42
2023-04-13T07:22:31.691Z,7.44
2023-04-13T07:23:34.534Z,7.44
2023-04-13T07:24:36.710Z,7.46
2023-04-13T07:25:39.365Z,7.50
2023-04-13T07:26:42.092Z,7.49
2023-04-13T07:27:44.094Z,7.43
2023-04-13T07:28:48.259Z,7.43
2023-04-13T07:29:52.286Z,7.44
2023-04-13T07:30:54.008Z,7.48
2023-04-13T07:32:01.264Z,7.47
2023-04-13T07:33:04.109Z,7.39
2023-04-13T07:34:05.917Z,7.49
2023-04-13T07:35:09.324Z,7.52
2023-04-13T07:36:12.174Z,7.59
2023-04-13T07:37:13.853Z,7.64
2023-04-13T07:38:16.592Z,7.54
2023-04-13T07:39:19.010Z,7.58
2023-04-13T07:40:21.665Z,7.58
2023-04-13T07:41:24.275Z,7.58
2023-04-13T07:42:27.013Z,7.60
2023-04-13T07:43:29.736Z,7.54
2023-04-13T07:44:34.181Z,7.62
2023-04-13T07:45:35.871Z,7.67
2023-04-13T07:46:39.417Z,7.60
2023-04-13T07:47:41.612Z,7.52
2023-04-13T07:48:44.855Z,7.53
2023-04-13T07:49:47.625Z,7.52
2023-04-13T07:50:49.347Z,7.59
2023-04-13T07:51:53.614Z,7.52
2023-04-13T07:52:56.308Z,7.53
2023-04-13T07:53:58.068Z,7.56
2023-04-13T07:55:03.114Z,7.47
2023-04-13T07:56:05.577Z,7.46
2023-04-13T07:57:08.279Z,7.45
2023-04-13T07:58:10.932Z,7.44
2023-04-13T07:59:13.919Z,7.49
2023-04-13T08:00:20.655Z,7.46
2023-04-13T08:01:22.589Z,7.38
2023-04-13T08:02:25.615Z,7.47
2023-04-13T08:03:31.009Z,7.46
2023-04-13T08:04:36.128Z,7.36
2023-04-13T08:05:38.905Z,7.38
2023-04-13T08:06:40.860Z,7.40
2023-04-13T08:07:46.529Z,7.42
2023-04-13T08:08:48.623Z,7.42
2023-04-13T08:09:52.646Z,7.46
2023-04-13T08:10:55.444Z,7.46
2023-04-13T08:11:58.898Z,7.43
2023-04-13T08:13:00.922Z,7.45
2023-04-13T08:14:03.770Z,7.45
2023-04-13T08:15:07.587Z,7.47
2023-04-13T08:16:11.483Z,7.48
2023-04-13T08:17:14.211Z,7.48
2023-04-13T08:18:15.950Z,7.51
2023-04-13T08:19:18.588Z,7.60
2023-04-13T08:20:21.182Z,7.63
2023-04-13T08:21:23.858Z,7.68
2023-04-13T08:22:25.546Z,7.72
2023-04-13T08:23:28.410Z,7.77
2023-04-13T08:24:31.125Z,7.81
2023-04-13T08:25:34.375Z,7.80
2023-04-13T08:26:36.222Z,7.87
2023-04-13T08:27:38.930Z,7.86
2023-04-13T08:28:40.693Z,7.81
2023-04-13T08:29:43.359Z,7.88
2023-04-13T08:30:45.821Z,7.93
2023-04-13T08:31:50.391Z,7.97
2023-04-13T08:32:53.697Z,7.99
2023-04-13T08:33:57.704Z,7.99
2023-04-13T08:34:59.513Z,8.00
2023-04-13T08:36:02.275Z,7.94
2023-04-13T08:37:04.061Z,7.85
2023-04-13T08:38:07.081Z,7.90
2023-04-13T08:39:10.443Z,7.95
2023-04-13T08:40:13.589Z,7.92
2023-04-13T08:41:17.801Z,7.90
2023-04-13T08:42:20.458Z,7.89
2023-04-13T08:43:23.209Z,7.89
2023-04-13T08:44:25.106Z,7.86
2023-04-13T08:45:30.541Z,7.87
2023-04-13T08:46:33.208Z,7.86
2023-04-13T08:47:37.314Z,7.85
2023-04-13T08:48:52.617Z,7.87
2023-04-13T08:49:58.428Z,7.86
2023-04-13T08:51:02.595Z,7.86
2023-04-13T08:52:08.775Z,7.88
2023-04-13T08:53:10.579Z,7.86
2023-04-13T08:54:14.847Z,7.85
2023-04-13T08:55:17.888Z,7.88
2023-04-13T08:56:28.174Z,7.88
2023-04-13T08:57:37.533Z,7.89
2023-04-13T08:58:42.962Z,7.93
2023-04-13T08:59:45.816Z,8.02
2023-04-13T09:00:50.041Z,8.01
2023-04-13T09:01:53.310Z,7.99
2023-04-13T09:03:04.912Z,8.05
2023-04-13T09:04:11.618Z,7.95
2023-04-13T09:05:16.385Z,7.94
2023-04-13T09:06:23.025Z,8.04
2023-04-13T09:07:27.971Z,7.97
2023-04-13T09:08:34.563Z,8.02
2023-04-13T09:09:38.280Z,8.09
2023-04-13T09:10:42.235Z,8.09
2023-04-13T09:11:46.393Z,8.12
2023-04-13T09:12:50.889Z,8.07
2023-04-13T09:13:53.808Z,8.11
2023-04-13T09:14:55.634Z,8.18
2023-04-13T09:15:58.298Z,8.25
2023-04-13T09:17:00.052Z,8.27
2023-04-13T09:18:10.998Z,8.27
2023-04-13T09:19:13.958Z,8.30
2023-04-13T09:20:18.901Z,8.34
2023-04-13T09:21:20.675Z,8.40
2023-04-13T09:22:23.327Z,8.31
2023-04-13T09:23:26.237Z,8.26
2023-04-13T09:24:40.168Z,8.25
2023-04-13T09:25:42.536Z,8.20
2023-04-13T09:26:46.109Z,8.18
2023-04-13T09:27:47.809Z,8.04
2023-04-13T09:28:54.297Z,8.10
2023-04-13T09:30:00.867Z,8.13
2023-04-13T09:31:03.965Z,8.15
2023-04-13T09:32:07.715Z,8.21
2023-04-13T09:33:11.695Z,8.30
2023-04-13T09:34:15.352Z,8.35
2023-04-13T09:35:17.873Z,8.39
2023-04-13T09:36:22.497Z,8.38
2023-04-13T09:37:24.512Z,8.46
2023-04-13T09:38:31.388Z,8.52
2023-04-13T09:39:34.231Z,8.59
2023-04-13T09:40:39.033Z,8.66
2023-04-13T09:41:46.557Z,8.62
2023-04-13T09:42:55.874Z,8.68
2023-04-13T09:43:57.968Z,8.69
2023-04-13T09:45:00.966Z,8.67
2023-04-13T09:46:03.846Z,8.66
2023-04-13T09:47:07.773Z,8.73
2023-04-13T09:48:20.609Z,8.77
2023-04-13T09:49:24.206Z,8.83
2023-04-13T09:50:28.270Z,8.89
2023-04-13T09:51:38.369Z,8.92
2023-04-13T09:52:40.623Z,8.94
2023-04-13T09:53:45.751Z,8.91
2023-04-13T09:54:49.909Z,8.89
2023-04-13T09:55:59.651Z,8.76
2023-04-13T09:57:01.380Z,8.86
2023-04-13T09:58:11.093Z,8.91
2023-04-13T09:59:13.318Z,8.80
2023-04-13T10:00:21.055Z,8.86
2023-04-13T10:01:24.783Z,8.94
2023-04-13T10:02:27.272Z,9.01
2023-04-13T10:03:32.221Z,9.11
2023-04-13T10:04:34.930Z,9.18
2023-04-13T10:05:51.144Z,9.27
2023-04-13T10:07:00.935Z,9.34
2023-04-13T10:08:02.616Z,9.40
2023-04-13T10:09:05.754Z,9.45
2023-04-13T10:10:09.676Z,9.46
2023-04-13T10:11:14.374Z,9.47
2023-04-13T10:12:16.961Z,9.47
2023-04-13T10:13:24.436Z,9.55
2023-04-13T10:14:33.141Z,9.58
2023-04-13T10:15:50.951Z,9.60
2023-04-13T10:17:33.566Z,9.54
2023-04-13T10:18:42.699Z,9.53
2023-04-13T10:19:47.416Z,9.39
2023-04-13T10:20:50.351Z,9.33
2023-04-13T10:21:54.831Z,9.30
2023-04-13T10:22:57.231Z,9.38
2023-04-13T10:24:00.229Z,9.38
2023-04-13T10:25:03.144Z,9.40
2023-04-13T10:26:06.539Z,9.38
2023-04-13T10:27:15.090Z,9.43
2023-04-13T10:28:17.470Z,9.50
2023-04-13T10:29:28.381Z,9.49
2023-04-13T10:30:31.310Z,9.53
2023-04-13T10:31:39.570Z,9.61
2023-04-13T10:32:42.736Z,9.69
2023-04-13T10:33:48.921Z,9.77
2023-04-13T10:34:52.936Z,9.77
2023-04-13T10:35:57.765Z,9.82
2023-04-13T10:37:03.761Z,9.91
2023-04-13T10:38:08.670Z,9.96
2023-04-13T10:39:10.850Z,9.97
2023-04-13T10:40:16.256Z,9.99
2023-04-13T10:41:24.915Z,10.01
2023-04-13T10:42:28.107Z,10.04
2023-04-13T10:43:32.487Z,10.07
2023-04-13T10:44:45.256Z,10.15
2023-04-13T10:45:47.923Z,10.23
2023-04-13T10:46:50.894Z,10.30
2023-04-13T10:47:54.238Z,10.37
2023-04-13T10:48:59.380Z,10.43
2023-04-13T10:50:02.293Z,10.45
2023-04-13T10:51:05.965Z,10.48
2023-04-13T10:52:10.093Z,10.52
2023-04-13T10:53:11.864Z,10.53
2023-04-13T10:54:15.217Z,10.57
2023-04-13T10:55:19.124Z,10.50
2023-04-13T10:56:21.868Z,10.60
2023-04-13T10:57:23.599Z,10.54
2023-04-13T10:58:28.537Z,10.52
2023-04-13T10:59:53.618Z,10.58
2023-04-13T11:00:59.695Z,10.62
2023-04-13T11:02:02.090Z,10.61
2023-04-13T11:03:06.646Z,10.64
2023-04-13T11:04:15.236Z,10.63
2023-04-13T11:05:20.850Z,10.67
2023-04-13T11:06:23.610Z,10.73
2023-04-13T11:07:26.188Z,10.78
2023-04-13T11:08:30.362Z,10.86
2023-04-13T11:09:32.030Z,10.84
2023-04-13T11:10:34.745Z,10.89
2023-04-13T11:11:39.634Z,10.82
2023-04-13T11:12:49.991Z,10.82
2023-04-13T11:13:52.698Z,10.89
2023-04-13T11:14:54.374Z,11.02
2023-04-13T11:16:03.878Z,11.21
2023-04-13T11:17:07.985Z,11.27
2023-04-13T11:18:10.429Z,11.38
2023-04-13T11:19:14.506Z,11.36
2023-04-13T11:20:16.687Z,11.43
2023-04-13T11:21:19.384Z,11.56
2023-04-13T11:22:23.559Z,11.57
2023-04-13T11:23:26.236Z,11.69
2023-04-13T11:24:33.792Z,11.81
2023-04-13T11:25:36.581Z,11.90
2023-04-13T11:26:39.783Z,12.02
2023-04-13T11:27:41.589Z,12.09
2023-04-13T11:28:46.185Z,12.18
2023-04-13T11:29:57.459Z,12.16
2023-04-13T11:31:01.511Z,12.15
2023-04-13T11:32:05.933Z,12.15
2023-04-13T11:33:09.874Z,12.11
2023-04-13T11:34:14.035Z,11.87
2023-04-13T11:35:16.553Z,11.84
2023-04-13T11:36:20.445Z,11.75
2023-04-13T11:37:22.809Z,11.79
2023-04-13T11:38:25.683Z,11.80
2023-04-13T11:39:29.501Z,11.76
2023-04-13T11:40:32.451Z,11.64
2023-04-13T11:41:39.339Z,11.70
2023-04-13T11:42:43.150Z,11.77
2023-04-13T11:43:46.145Z,11.79
2023-04-13T11:44:49.373Z,11.77
2023-04-13T11:45:52.147Z,11.82
2023-04-13T11:46:54.074Z,11.83
2023-04-13T11:47:57.831Z,11.88
2023-04-13T11:48:59.975Z,11.92
2023-04-13T11:50:04.604Z,11.79
2023-04-13T11:51:06.622Z,11.90
2023-04-13T11:52:09.386Z,12.02
2023-04-13T11:53:12.214Z,12.04
2023-04-13T11:54:14.127Z,12.13
2023-04-13T11:55:23.302Z,12.19
2023-04-13T11:56:25.971Z,12.23
2023-04-13T11:57:29.276Z,12.25
2023-04-13T11:58:32.882Z,12.23
2023-04-13T11:59:36.343Z,12.06
2023-04-13T12:00:41.164Z,11.91
2023-04-13T12:01:50.201Z,11.82
2023-04-13T12:04:14.880Z,12.12
2023-04-13T12:05:24.263Z,12.07
2023-04-13T12:06:27.863Z,12.01
2023-04-13T12:07:31.291Z,11.97
2023-04-13T12:08:34.421Z,12.03
2023-04-13T12:09:55.350Z,12.12
2023-04-13T12:13:33.247Z,12.07
2023-04-13T12:14:57.624Z,12.16
2023-04-13T12:17:34.682Z,12.47
2023-04-13T12:18:37.442Z,12.50
2023-04-13T12:19:41.306Z,12.67
2023-04-13T12:20:48.681Z,12.74
2023-04-13T12:21:52.878Z,12.77
2023-04-13T12:23:03.172Z,12.84
2023-04-13T12:24:11.561Z,12.91
2023-04-13T12:25:17.607Z,13.01
2023-04-13T12:26:59.472Z,13.14
2023-04-13T12:27:43.891Z,13.05
2023-04-13T12:28:46.605Z,13.01
2023-04-13T12:29:49.294Z,13.01
2023-04-13T12:30:51.050Z,12.95
2023-04-13T12:32:00.528Z,12.95
2023-04-13T12:33:02.343Z,12.89
2023-04-13T12:34:07.639Z,12.96
2023-04-13T12:35:10.062Z,13.02
2023-04-13T12:36:14.129Z,13.12
2023-04-13T12:37:16.794Z,13.12
2023-04-13T12:38:18.500Z,13.13
2023-04-13T12:39:21.324Z,13.07
2023-04-13T12:40:23.338Z,13.12
2023-04-13T12:41:26.417Z,13.28
2023-04-13T12:42:28.378Z,13.43
2023-04-13T12:43:31.213Z,13.38
2023-04-13T12:44:34.375Z,13.34
2023-04-13T12:45:37.380Z,13.46
2023-04-13T12:46:40.347Z,13.49
2023-04-13T12:47:43.547Z,13.58
2023-04-13T12:48:45.522Z,13.71
2023-04-13T12:49:48.394Z,13.72
2023-04-13T12:50:50.216Z,13.68
2023-04-13T12:51:54.305Z,13.63
2023-04-13T12:52:56.992Z,13.37
2023-04-13T12:53:58.708Z,13.22
2023-04-13T12:55:02.323Z,13.15
2023-04-13T12:56:05.430Z,13.08
2023-04-13T12:57:07.358Z,12.99
2023-04-13T12:58:11.946Z,13.01
2023-04-13T12:59:14.646Z,13.00
2023-04-13T13:00:18.842Z,13.00
2023-04-13T13:01:21.819Z,12.96
2023-04-13T13:02:24.405Z,13.04
2023-04-13T13:03:27.290Z,13.08
2023-04-13T13:04:32.004Z,13.29
2023-04-13T13:05:34.795Z,13.40
2023-04-13T13:06:38.156Z,13.51
2023-04-13T13:07:42.402Z,13.51
2023-04-13T13:08:44.075Z,13.50
2023-04-13T13:09:46.783Z,13.60
2023-04-13T13:10:48.646Z,13.52
2023-04-13T13:11:51.660Z,13.47
2023-04-13T13:12:53.412Z,13.46
2023-04-13T13:13:56.115Z,13.53
2023-04-13T13:14:58.613Z,13.59
2023-04-13T13:16:01.398Z,13.45
2023-04-13T13:17:03.737Z,13.41
2023-04-13T13:18:08.739Z,13.41
2023-04-13T13:19:11.464Z,13.33
2023-04-13T13:20:13.438Z,13.28
2023-04-13T13:21:16.145Z,13.13
2023-04-13T13:22:17.843Z,12.99
2023-04-13T13:23:21.869Z,12.79
2023-04-13T13:24:23.964Z,12.75
2023-04-13T13:25:26.781Z,12.71
2023-04-13T13:26:36.240Z,12.66
2023-04-13T13:28:54.193Z,12.42
2023-04-13T13:29:57.315Z,12.29
2023-04-13T13:30:59.997Z,12.22
2023-04-13T13:32:02.717Z,12.26
2023-04-13T13:33:04.795Z,12.24
2023-04-13T13:34:07.541Z,12.12
2023-04-13T13:35:10.595Z,12.06
2023-04-13T13:36:14.430Z,11.95
2023-04-13T13:37:16.526Z,11.82
2023-04-13T13:38:19.251Z,11.70
2023-04-13T13:39:22.919Z,11.52
2023-04-13T13:40:25.662Z,11.20
2023-04-13T13:41:27.341Z,10.84
2023-04-13T13:42:40.434Z,10.79
2023-04-13T13:43:50.879Z,10.67
2023-04-13T13:44:53.620Z,10.46
2023-04-13T13:45:56.464Z,10.27
2023-04-13T13:46:58.332Z,10.13
2023-04-13T13:48:01.225Z,10.02
2023-04-13T13:49:03.214Z,9.91
2023-04-13T13:50:07.094Z,9.89
2023-04-13T13:51:08.962Z,9.83
2023-04-13T13:52:11.680Z,9.80
2023-04-13T13:53:13.334Z,9.75
2023-04-13T13:54:16.028Z,9.75
2023-04-13T13:55:20.476Z,9.77
2023-04-13T13:56:23.126Z,9.80
2023-04-13T13:57:25.294Z,9.84
2023-04-13T13:58:27.972Z,9.89
2023-04-13T13:59:32.041Z,9.93
2023-04-13T14:00:34.029Z,9.99
2023-04-13T14:01:37.754Z,10.07
2023-04-13T14:02:39.870Z,10.12
2023-04-13T14:03:42.661Z,10.22
2023-04-13T14:04:44.519Z,10.30
2023-04-13T14:05:47.299Z,10.37
2023-04-13T14:06:49.915Z,10.44
2023-04-13T14:07:52.731Z,10.56
2023-04-13T14:08:55.823Z,10.66
2023-04-13T14:09:58.522Z,10.77